sensor_id;sensor_type;location;lat;lon;timestamp;temperature;humidity
34492;DHT22;20737;49.908;8.126;2022-07-29T00:00:05;20.40;99.90
34492;DHT22;20737;49.908;8.126;2022-07-29T00:02:32;20.40;99.90
34492;DHT22;20737;49.908;8.126;2022-07-29T00:04:59;20.30;99.90
34492;DHT22;20737;49.908;8.126;2022-07-29T00:07:27;20.30;99.90
34492;DHT22;20737;49.908;8.126;2022-07-29T00:09:54;20.20;99.90
34492;DHT22;20737;49.908;8.126;2022-07-29T00:12:22;20.20;99.90
34492;DHT22;20737;49.908;8.126;2022-07-29T00:14:49;20.20;99.90
34492;DHT22;20737;49.908;8.126;2022-07-29T00:17:16;20.20;99.90
34492;DHT22;20737;49.908;8.126;2022-07-29T00:19:43;20.20;99.90
34492;DHT22;20737;49.908;8.126;2022-07-29T00:22:10;20.20;99.90
34492;DHT22;20737;49.908;8.126;2022-07-29T00:24:38;20.20;99.90
34492;DHT22;20737;49.908;8.126;2022-07-29T00:27:05;20.20;99.90
34492;DHT22;20737;49.908;8.126;2022-07-29T00:29:33;20.30;99.90
34492;DHT22;20737;49.908;8.126;2022-07-29T00:32:00;20.20;99.90
34492;DHT22;20737;49.908;8.126;2022-07-29T00:34:27;20.10;99.90
34492;DHT22;20737;49.908;8.126;2022-07-29T00:37:11;20.10;99.90
34492;DHT22;20737;49.908;8.126;2022-07-29T00:39:40;20.00;99.90
34492;DHT22;20737;49.908;8.126;2022-07-29T00:42:07;20.00;99.90
34492;DHT22;20737;49.908;8.126;2022-07-29T00:44:37;19.90;99.90
34492;DHT22;20737;49.908;8.126;2022-07-29T00:47:04;19.80;99.90
34492;DHT22;20737;49.908;8.126;2022-07-29T00:49:33;19.70;99.90
34492;DHT22;20737;49.908;8.126;2022-07-29T00:52:00;19.60;99.90
34492;DHT22;20737;49.908;8.126;2022-07-29T00:54:27;19.40;99.90
34492;DHT22;20737;49.908;8.126;2022-07-29T00:56:56;19.30;99.90
34492;DHT22;20737;49.908;8.126;2022-07-29T00:59:24;19.20;99.90
34492;DHT22;20737;49.908;8.126;2022-07-29T01:01:51;19.10;99.90
34492;DHT22;20737;49.908;8.126;2022-07-29T01:04:18;19.00;99.90
34492;DHT22;20737;49.908;8.126;2022-07-29T01:06:45;18.90;99.90
34492;DHT22;20737;49.908;8.126;2022-07-29T01:09:13;18.80;99.90
34492;DHT22;20737;49.908;8.126;2022-07-29T01:11:40;18.80;99.90
34492;DHT22;20737;49.908;8.126;2022-07-29T01:14:10;18.70;99.90
34492;DHT22;20737;49.908;8.126;2022-07-29T01:16:41;18.70;99.90
34492;DHT22;20737;49.908;8.126;2022-07-29T01:19:22;18.70;99.90
34492;DHT22;20737;49.908;8.126;2022-07-29T01:21:59;18.60;99.90
34492;DHT22;20737;49.908;8.126;2022-07-29T01:24:43;18.50;99.90
34492;DHT22;20737;49.908;8.126;2022-07-29T01:27:26;18.50;99.90
34492;DHT22;20737;49.908;8.126;2022-07-29T01:30:02;18.40;99.90
34492;DHT22;20737;49.908;8.126;2022-07-29T01:32:33;18.30;99.90
34492;DHT22;20737;49.908;8.126;2022-07-29T01:35:03;18.30;99.90
34492;DHT22;20737;49.908;8.126;2022-07-29T01:37:36;18.20;99.90
34492;DHT22;20737;49.908;8.126;2022-07-29T01:40:11;18.20;99.90
34492;DHT22;20737;49.908;8.126;2022-07-29T01:42:43;18.10;99.90
34492;DHT22;20737;49.908;8.126;2022-07-29T01:45:14;18.10;99.90
34492;DHT22;20737;49.908;8.126;2022-07-29T01:47:46;18.10;99.90
34492;DHT22;20737;49.908;8.126;2022-07-29T01:50:16;18.10;99.90
34492;DHT22;20737;49.908;8.126;2022-07-29T01:52:56;18.10;99.90
34492;DHT22;20737;49.908;8.126;2022-07-29T01:55:27;18.10;99.90
34492;DHT22;20737;49.908;8.126;2022-07-29T01:57:56;18.00;99.90
34492;DHT22;20737;49.908;8.126;2022-07-29T02:00:26;17.90;99.90
34492;DHT22;20737;49.908;8.126;2022-07-29T02:02:54;17.90;99.90
34492;DHT22;20737;49.908;8.126;2022-07-29T02:05:22;17.90;99.90
34492;DHT22;20737;49.908;8.126;2022-07-29T02:07:51;17.80;99.90
34492;DHT22;20737;49.908;8.126;2022-07-29T02:10:21;17.80;99.90
34492;DHT22;20737;49.908;8.126;2022-07-29T02:12:50;17.70;99.90
34492;DHT22;20737;49.908;8.126;2022-07-29T02:15:19;17.60;99.90
34492;DHT22;20737;49.908;8.126;2022-07-29T02:17:50;17.70;99.90
34492;DHT22;20737;49.908;8.126;2022-07-29T02:20:18;17.70;99.90
34492;DHT22;20737;49.908;8.126;2022-07-29T02:22:46;17.70;99.90
34492;DHT22;20737;49.908;8.126;2022-07-29T02:25:17;17.60;99.90
34492;DHT22;20737;49.908;8.126;2022-07-29T02:27:44;17.50;99.90
34492;DHT22;20737;49.908;8.126;2022-07-29T02:30:12;17.50;99.90
34492;DHT22;20737;49.908;8.126;2022-07-29T02:32:41;17.50;99.90
34492;DHT22;20737;49.908;8.126;2022-07-29T02:35:10;17.40;99.90
34492;DHT22;20737;49.908;8.126;2022-07-29T02:37:43;17.30;99.90
34492;DHT22;20737;49.908;8.126;2022-07-29T02:40:11;17.30;99.90
34492;DHT22;20737;49.908;8.126;2022-07-29T02:42:42;17.20;99.90
34492;DHT22;20737;49.908;8.126;2022-07-29T02:45:11;17.10;99.90
34492;DHT22;20737;49.908;8.126;2022-07-29T02:47:42;17.00;99.90
34492;DHT22;20737;49.908;8.126;2022-07-29T02:50:15;16.90;99.90
34492;DHT22;20737;49.908;8.126;2022-07-29T02:52:44;16.90;99.90
34492;DHT22;20737;49.908;8.126;2022-07-29T02:55:16;16.80;99.90
34492;DHT22;20737;49.908;8.126;2022-07-29T02:57:47;16.80;99.90
34492;DHT22;20737;49.908;8.126;2022-07-29T03:00:16;16.80;99.90
34492;DHT22;20737;49.908;8.126;2022-07-29T03:02:45;16.80;99.90
34492;DHT22;20737;49.908;8.126;2022-07-29T03:05:18;16.70;99.90
34492;DHT22;20737;49.908;8.126;2022-07-29T03:07:52;16.70;99.90
34492;DHT22;20737;49.908;8.126;2022-07-29T03:10:20;16.70;99.90
34492;DHT22;20737;49.908;8.126;2022-07-29T03:12:48;16.60;99.90
34492;DHT22;20737;49.908;8.126;2022-07-29T03:15:15;16.50;99.90
34492;DHT22;20737;49.908;8.126;2022-07-29T03:17:43;16.50;99.90
34492;DHT22;20737;49.908;8.126;2022-07-29T03:20:13;16.50;99.90
34492;DHT22;20737;49.908;8.126;2022-07-29T03:22:41;16.50;99.90
34492;DHT22;20737;49.908;8.126;2022-07-29T03:25:09;16.60;99.90
34492;DHT22;20737;49.908;8.126;2022-07-29T03:27:36;16.50;99.90
34492;DHT22;20737;49.908;8.126;2022-07-29T03:30:04;16.40;99.90
34492;DHT22;20737;49.908;8.126;2022-07-29T03:32:31;16.40;99.90
34492;DHT22;20737;49.908;8.126;2022-07-29T03:34:57;16.40;99.90
34492;DHT22;20737;49.908;8.126;2022-07-29T03:37:26;16.40;99.90
34492;DHT22;20737;49.908;8.126;2022-07-29T03:39:55;16.30;99.90
34492;DHT22;20737;49.908;8.126;2022-07-29T03:42:25;16.30;99.90
34492;DHT22;20737;49.908;8.126;2022-07-29T03:44:54;16.20;99.90
34492;DHT22;20737;49.908;8.126;2022-07-29T03:47:24;16.10;99.90
34492;DHT22;20737;49.908;8.126;2022-07-29T03:49:56;16.00;99.90
34492;DHT22;20737;49.908;8.126;2022-07-29T03:52:27;16.10;99.90
34492;DHT22;20737;49.908;8.126;2022-07-29T03:54:54;16.00;99.90
34492;DHT22;20737;49.908;8.126;2022-07-29T03:57:24;16.00;99.90
34492;DHT22;20737;49.908;8.126;2022-07-29T03:59:52;16.00;99.90
34492;DHT22;20737;49.908;8.126;2022-07-29T04:02:20;16.00;99.90
34492;DHT22;20737;49.908;8.126;2022-07-29T04:04:47;15.90;99.90
34492;DHT22;20737;49.908;8.126;2022-07-29T04:07:14;15.90;99.90
34492;DHT22;20737;49.908;8.126;2022-07-29T04:09:43;15.90;99.90
34492;DHT22;20737;49.908;8.126;2022-07-29T04:12:10;15.90;99.90
34492;DHT22;20737;49.908;8.126;2022-07-29T04:14:37;15.90;99.90
34492;DHT22;20737;49.908;8.126;2022-07-29T04:17:04;15.80;99.90
34492;DHT22;20737;49.908;8.126;2022-07-29T04:19:32;15.90;99.90
34492;DHT22;20737;49.908;8.126;2022-07-29T04:22:00;15.80;99.90
34492;DHT22;20737;49.908;8.126;2022-07-29T04:24:27;15.80;99.90
34492;DHT22;20737;49.908;8.126;2022-07-29T04:26:55;15.90;99.90
34492;DHT22;20737;49.908;8.126;2022-07-29T04:29:22;15.90;99.90
34492;DHT22;20737;49.908;8.126;2022-07-29T04:31:49;15.90;99.90
34492;DHT22;20737;49.908;8.126;2022-07-29T04:34:15;15.80;99.90
34492;DHT22;20737;49.908;8.126;2022-07-29T04:36:42;15.80;99.90
34492;DHT22;20737;49.908;8.126;2022-07-29T04:39:09;15.90;99.90
34492;DHT22;20737;49.908;8.126;2022-07-29T04:41:36;15.90;99.90
34492;DHT22;20737;49.908;8.126;2022-07-29T04:44:04;16.00;99.90
34492;DHT22;20737;49.908;8.126;2022-07-29T04:46:31;16.00;99.90
34492;DHT22;20737;49.908;8.126;2022-07-29T04:48:58;16.10;99.90
34492;DHT22;20737;49.908;8.126;2022-07-29T04:51:25;16.10;99.90
34492;DHT22;20737;49.908;8.126;2022-07-29T04:53:51;16.10;99.90
34492;DHT22;20737;49.908;8.126;2022-07-29T04:56:18;16.10;99.90
34492;DHT22;20737;49.908;8.126;2022-07-29T04:58:45;16.30;99.90
34492;DHT22;20737;49.908;8.126;2022-07-29T05:01:13;16.30;99.90
34492;DHT22;20737;49.908;8.126;2022-07-29T05:03:40;16.40;99.90
34492;DHT22;20737;49.908;8.126;2022-07-29T05:06:07;16.50;99.90
34492;DHT22;20737;49.908;8.126;2022-07-29T05:08:34;16.50;99.90
34492;DHT22;20737;49.908;8.126;2022-07-29T05:11:01;16.60;99.90
34492;DHT22;20737;49.908;8.126;2022-07-29T05:13:27;16.60;99.90
34492;DHT22;20737;49.908;8.126;2022-07-29T05:15:54;16.70;99.90
34492;DHT22;20737;49.908;8.126;2022-07-29T05:18:22;16.80;99.90
34492;DHT22;20737;49.908;8.126;2022-07-29T05:20:49;16.90;99.90
34492;DHT22;20737;49.908;8.126;2022-07-29T05:23:16;17.00;99.90
34492;DHT22;20737;49.908;8.126;2022-07-29T05:25:43;17.10;99.90
34492;DHT22;20737;49.908;8.126;2022-07-29T05:28:10;17.20;99.90
34492;DHT22;20737;49.908;8.126;2022-07-29T05:30:37;17.30;99.90
34492;DHT22;20737;49.908;8.126;2022-07-29T05:33:03;17.50;99.90
34492;DHT22;20737;49.908;8.126;2022-07-29T05:35:31;17.60;99.90
34492;DHT22;20737;49.908;8.126;2022-07-29T05:38:00;17.80;99.90
34492;DHT22;20737;49.908;8.126;2022-07-29T05:40:27;17.90;99.90
34492;DHT22;20737;49.908;8.126;2022-07-29T05:42:53;18.10;99.90
34492;DHT22;20737;49.908;8.126;2022-07-29T05:45:20;18.20;99.90
34492;DHT22;20737;49.908;8.126;2022-07-29T05:47:47;18.40;99.90
34492;DHT22;20737;49.908;8.126;2022-07-29T05:50:14;18.50;99.90
34492;DHT22;20737;49.908;8.126;2022-07-29T05:52:42;18.50;99.90
34492;DHT22;20737;49.908;8.126;2022-07-29T05:55:09;18.70;99.90
34492;DHT22;20737;49.908;8.126;2022-07-29T05:57:36;18.70;99.90
34492;DHT22;20737;49.908;8.126;2022-07-29T06:00:07;18.80;99.90
34492;DHT22;20737;49.908;8.126;2022-07-29T06:02:34;19.00;99.90
34492;DHT22;20737;49.908;8.126;2022-07-29T06:05:01;19.10;99.90
34492;DHT22;20737;49.908;8.126;2022-07-29T06:07:28;19.20;99.90
34492;DHT22;20737;49.908;8.126;2022-07-29T06:09:56;19.30;99.90
34492;DHT22;20737;49.908;8.126;2022-07-29T06:12:22;19.60;99.90
34492;DHT22;20737;49.908;8.126;2022-07-29T06:14:49;19.80;99.90
34492;DHT22;20737;49.908;8.126;2022-07-29T06:17:16;19.90;99.90
34492;DHT22;20737;49.908;8.126;2022-07-29T06:19:43;20.10;99.90
34492;DHT22;20737;49.908;8.126;2022-07-29T06:22:10;20.30;99.90
34492;DHT22;20737;49.908;8.126;2022-07-29T06:24:37;20.80;99.90
34492;DHT22;20737;49.908;8.126;2022-07-29T06:27:08;21.70;99.90
34492;DHT22;20737;49.908;8.126;2022-07-29T06:29:35;22.40;99.90
34492;DHT22;20737;49.908;8.126;2022-07-29T06:32:02;22.90;99.90
34492;DHT22;20737;49.908;8.126;2022-07-29T06:34:28;23.40;99.90
34492;DHT22;20737;49.908;8.126;2022-07-29T06:36:58;23.60;99.90
34492;DHT22;20737;49.908;8.126;2022-07-29T06:39:25;24.20;99.90
34492;DHT22;20737;49.908;8.126;2022-07-29T06:41:53;24.50;99.90
34492;DHT22;20737;49.908;8.126;2022-07-29T06:44:21;25.40;99.90
34492;DHT22;20737;49.908;8.126;2022-07-29T06:46:47;25.50;99.90
34492;DHT22;20737;49.908;8.126;2022-07-29T06:49:17;24.90;99.90
34492;DHT22;20737;49.908;8.126;2022-07-29T06:51:45;24.10;99.90
34492;DHT22;20737;49.908;8.126;2022-07-29T06:54:12;23.60;99.90
34492;DHT22;20737;49.908;8.126;2022-07-29T06:56:42;23.30;99.90
34492;DHT22;20737;49.908;8.126;2022-07-29T06:59:10;23.10;99.90
34492;DHT22;20737;49.908;8.126;2022-07-29T07:01:40;23.10;99.90
34492;DHT22;20737;49.908;8.126;2022-07-29T07:04:07;23.30;99.90
34492;DHT22;20737;49.908;8.126;2022-07-29T07:06:35;23.30;99.90
34492;DHT22;20737;49.908;8.126;2022-07-29T07:09:01;23.50;99.90
34492;DHT22;20737;49.908;8.126;2022-07-29T07:11:30;24.00;99.90
34492;DHT22;20737;49.908;8.126;2022-07-29T07:13:57;25.10;99.90
34492;DHT22;20737;49.908;8.126;2022-07-29T07:16:24;26.00;99.90
34492;DHT22;20737;49.908;8.126;2022-07-29T07:18:52;26.70;99.90
34492;DHT22;20737;49.908;8.126;2022-07-29T07:21:18;27.70;96.00
34492;DHT22;20737;49.908;8.126;2022-07-29T07:23:45;27.90;94.70
34492;DHT22;20737;49.908;8.126;2022-07-29T07:26:15;28.10;93.50
34492;DHT22;20737;49.908;8.126;2022-07-29T07:28:42;28.80;87.50
34492;DHT22;20737;49.908;8.126;2022-07-29T07:31:09;29.10;91.10
34492;DHT22;20737;49.908;8.126;2022-07-29T07:33:36;29.10;84.20
34492;DHT22;20737;49.908;8.126;2022-07-29T07:36:04;29.10;88.60
34492;DHT22;20737;49.908;8.126;2022-07-29T07:38:31;28.90;91.50
34492;DHT22;20737;49.908;8.126;2022-07-29T07:40:58;29.10;90.60
34492;DHT22;20737;49.908;8.126;2022-07-29T07:43:25;29.60;76.70
34492;DHT22;20737;49.908;8.126;2022-07-29T07:45:52;29.60;81.80
34492;DHT22;20737;49.908;8.126;2022-07-29T07:48:18;29.50;79.10
34492;DHT22;20737;49.908;8.126;2022-07-29T07:50:45;30.10;83.20
34492;DHT22;20737;49.908;8.126;2022-07-29T07:53:16;30.40;77.40
34492;DHT22;20737;49.908;8.126;2022-07-29T07:55:43;31.00;75.20
34492;DHT22;20737;49.908;8.126;2022-07-29T07:58:10;31.00;73.60
34492;DHT22;20737;49.908;8.126;2022-07-29T08:00:37;31.20;66.80
34492;DHT22;20737;49.908;8.126;2022-07-29T08:03:03;31.10;66.30
34492;DHT22;20737;49.908;8.126;2022-07-29T08:05:30;31.20;62.40
34492;DHT22;20737;49.908;8.126;2022-07-29T08:07:57;31.80;63.70
34492;DHT22;20737;49.908;8.126;2022-07-29T08:10:26;32.30;61.60
34492;DHT22;20737;49.908;8.126;2022-07-29T08:13:10;31.80;54.60
34492;DHT22;20737;49.908;8.126;2022-07-29T08:15:39;31.80;58.20
34492;DHT22;20737;49.908;8.126;2022-07-29T08:18:07;31.70;63.20
34492;DHT22;20737;49.908;8.126;2022-07-29T08:20:34;31.60;58.80
34492;DHT22;20737;49.908;8.126;2022-07-29T08:23:02;31.70;60.50
34492;DHT22;20737;49.908;8.126;2022-07-29T08:25:31;32.20;61.20
34492;DHT22;20737;49.908;8.126;2022-07-29T08:27:58;32.30;56.80
34492;DHT22;20737;49.908;8.126;2022-07-29T08:30:24;32.70;53.10
34492;DHT22;20737;49.908;8.126;2022-07-29T08:32:51;33.10;54.00
34492;DHT22;20737;49.908;8.126;2022-07-29T08:35:18;32.90;55.30
34492;DHT22;20737;49.908;8.126;2022-07-29T08:37:45;33.10;55.90
34492;DHT22;20737;49.908;8.126;2022-07-29T08:40:12;33.00;54.10
34492;DHT22;20737;49.908;8.126;2022-07-29T08:42:41;33.20;56.10
34492;DHT22;20737;49.908;8.126;2022-07-29T08:45:08;32.90;54.30
34492;DHT22;20737;49.908;8.126;2022-07-29T08:47:35;33.10;55.40
34492;DHT22;20737;49.908;8.126;2022-07-29T08:50:05;33.30;53.50
34492;DHT22;20737;49.908;8.126;2022-07-29T08:52:35;33.80;51.60
34492;DHT22;20737;49.908;8.126;2022-07-29T08:55:02;34.50;55.30
34492;DHT22;20737;49.908;8.126;2022-07-29T08:57:29;34.60;50.80
34492;DHT22;20737;49.908;8.126;2022-07-29T09:00:00;35.10;50.40
34492;DHT22;20737;49.908;8.126;2022-07-29T09:02:29;35.10;49.10
34492;DHT22;20737;49.908;8.126;2022-07-29T09:05:00;35.00;49.10
34492;DHT22;20737;49.908;8.126;2022-07-29T09:07:28;34.90;50.20
34492;DHT22;20737;49.908;8.126;2022-07-29T09:09:55;35.00;50.00
34492;DHT22;20737;49.908;8.126;2022-07-29T09:12:22;35.00;48.70
34492;DHT22;20737;49.908;8.126;2022-07-29T09:14:50;34.90;51.20
34492;DHT22;20737;49.908;8.126;2022-07-29T09:17:40;35.90;47.70
34492;DHT22;20737;49.908;8.126;2022-07-29T09:20:11;36.30;47.50
34492;DHT22;20737;49.908;8.126;2022-07-29T09:22:38;36.00;45.10
34492;DHT22;20737;49.908;8.126;2022-07-29T09:25:05;35.30;47.50
34492;DHT22;20737;49.908;8.126;2022-07-29T09:27:32;34.80;49.80
34492;DHT22;20737;49.908;8.126;2022-07-29T09:30:00;33.90;49.40
34492;DHT22;20737;49.908;8.126;2022-07-29T09:32:28;33.10;51.40
34492;DHT22;20737;49.908;8.126;2022-07-29T09:35:15;32.20;55.10
34492;DHT22;20737;49.908;8.126;2022-07-29T09:37:42;31.50;56.70
34492;DHT22;20737;49.908;8.126;2022-07-29T09:40:15;30.80;56.50
34492;DHT22;20737;49.908;8.126;2022-07-29T09:42:43;30.50;55.10
34492;DHT22;20737;49.908;8.126;2022-07-29T09:45:10;30.70;58.00
34492;DHT22;20737;49.908;8.126;2022-07-29T09:47:41;31.10;58.10
34492;DHT22;20737;49.908;8.126;2022-07-29T09:50:10;31.60;56.00
34492;DHT22;20737;49.908;8.126;2022-07-29T09:52:47;31.90;54.90
34492;DHT22;20737;49.908;8.126;2022-07-29T09:55:14;32.30;54.90
34492;DHT22;20737;49.908;8.126;2022-07-29T09:57:41;32.60;55.00
34492;DHT22;20737;49.908;8.126;2022-07-29T10:00:11;33.60;54.30
34492;DHT22;20737;49.908;8.126;2022-07-29T10:02:41;34.20;51.80
34492;DHT22;20737;49.908;8.126;2022-07-29T10:05:17;34.40;49.90
34492;DHT22;20737;49.908;8.126;2022-07-29T10:07:47;33.50;52.00
34492;DHT22;20737;49.908;8.126;2022-07-29T10:10:26;33.30;53.40
34492;DHT22;20737;49.908;8.126;2022-07-29T10:12:55;34.00;51.60
34492;DHT22;20737;49.908;8.126;2022-07-29T10:15:24;35.70;48.60
34492;DHT22;20737;49.908;8.126;2022-07-29T10:17:52;36.30;45.80
34492;DHT22;20737;49.908;8.126;2022-07-29T10:20:20;35.50;49.20
34492;DHT22;20737;49.908;8.126;2022-07-29T10:22:49;34.30;50.30
34492;DHT22;20737;49.908;8.126;2022-07-29T10:25:18;33.90;51.60
34492;DHT22;20737;49.908;8.126;2022-07-29T10:27:46;33.30;53.70
34492;DHT22;20737;49.908;8.126;2022-07-29T10:30:14;33.10;51.80
34492;DHT22;20737;49.908;8.126;2022-07-29T10:32:57;32.60;52.30
34492;DHT22;20737;49.908;8.126;2022-07-29T10:35:37;31.80;54.80
34492;DHT22;20737;49.908;8.126;2022-07-29T10:41:23;31.90;54.00
34492;DHT22;20737;49.908;8.126;2022-07-29T10:43:59;33.00;53.30
34492;DHT22;20737;49.908;8.126;2022-07-29T10:46:28;34.70;51.20
34492;DHT22;20737;49.908;8.126;2022-07-29T10:49:07;36.60;46.70
34492;DHT22;20737;49.908;8.126;2022-07-29T10:52:07;37.00;47.90
34492;DHT22;20737;49.908;8.126;2022-07-29T10:54:40;37.00;46.50
34492;DHT22;20737;49.908;8.126;2022-07-29T10:57:18;37.80;45.90
34492;DHT22;20737;49.908;8.126;2022-07-29T10:59:46;37.80;45.60
34492;DHT22;20737;49.908;8.126;2022-07-29T11:02:42;37.60;45.20
34492;DHT22;20737;49.908;8.126;2022-07-29T11:05:11;37.20;46.30
34492;DHT22;20737;49.908;8.126;2022-07-29T11:07:40;38.10;43.70
34492;DHT22;20737;49.908;8.126;2022-07-29T11:10:26;38.00;44.60
34492;DHT22;20737;49.908;8.126;2022-07-29T11:12:54;38.00;44.00
34492;DHT22;20737;49.908;8.126;2022-07-29T11:15:22;38.20;44.70
34492;DHT22;20737;49.908;8.126;2022-07-29T11:18:08;38.30;44.00
34492;DHT22;20737;49.908;8.126;2022-07-29T11:20:38;38.50;43.20
34492;DHT22;20737;49.908;8.126;2022-07-29T11:23:24;39.20;42.60
34492;DHT22;20737;49.908;8.126;2022-07-29T11:26:14;39.30;42.70
34492;DHT22;20737;49.908;8.126;2022-07-29T11:28:51;39.50;42.50
34492;DHT22;20737;49.908;8.126;2022-07-29T11:31:29;40.10;44.20
34492;DHT22;20737;49.908;8.126;2022-07-29T11:34:04;39.90;41.40
34492;DHT22;20737;49.908;8.126;2022-07-29T11:37:17;39.00;42.50
34492;DHT22;20737;49.908;8.126;2022-07-29T11:39:45;37.70;45.70
34492;DHT22;20737;49.908;8.126;2022-07-29T11:42:38;36.00;45.10
34492;DHT22;20737;49.908;8.126;2022-07-29T11:45:09;34.80;49.30
34492;DHT22;20737;49.908;8.126;2022-07-29T11:47:37;34.60;50.90
34492;DHT22;20737;49.908;8.126;2022-07-29T11:50:07;35.50;49.00
34492;DHT22;20737;49.908;8.126;2022-07-29T11:52:36;36.80;49.00
34492;DHT22;20737;49.908;8.126;2022-07-29T11:55:10;37.80;44.60
34492;DHT22;20737;49.908;8.126;2022-07-29T11:57:44;38.20;44.40
34492;DHT22;20737;49.908;8.126;2022-07-29T12:00:21;38.50;45.70
34492;DHT22;20737;49.908;8.126;2022-07-29T12:02:48;39.00;43.00
34492;DHT22;20737;49.908;8.126;2022-07-29T12:05:16;38.80;42.10
34492;DHT22;20737;49.908;8.126;2022-07-29T12:07:43;39.50;43.20
34492;DHT22;20737;49.908;8.126;2022-07-29T12:10:10;39.30;42.20
34492;DHT22;20737;49.908;8.126;2022-07-29T12:12:37;39.00;41.80
34492;DHT22;20737;49.908;8.126;2022-07-29T12:15:14;38.50;42.00
34492;DHT22;20737;49.908;8.126;2022-07-29T12:17:43;38.10;43.80
34492;DHT22;20737;49.908;8.126;2022-07-29T12:20:10;38.40;45.40
34492;DHT22;20737;49.908;8.126;2022-07-29T12:22:40;38.50;43.30
34492;DHT22;20737;49.908;8.126;2022-07-29T12:25:10;38.00;43.50
34492;DHT22;20737;49.908;8.126;2022-07-29T12:27:40;37.90;43.00
34492;DHT22;20737;49.908;8.126;2022-07-29T12:30:09;37.80;43.40
34492;DHT22;20737;49.908;8.126;2022-07-29T12:32:40;37.20;42.80
34492;DHT22;20737;49.908;8.126;2022-07-29T12:35:10;36.80;46.40
34492;DHT22;20737;49.908;8.126;2022-07-29T12:37:40;36.20;46.30
34492;DHT22;20737;49.908;8.126;2022-07-29T12:40:08;35.60;45.20
34492;DHT22;20737;49.908;8.126;2022-07-29T12:42:36;34.90;46.50
34492;DHT22;20737;49.908;8.126;2022-07-29T12:45:04;34.90;46.90
34492;DHT22;20737;49.908;8.126;2022-07-29T12:47:32;34.60;49.20
34492;DHT22;20737;49.908;8.126;2022-07-29T12:50:11;34.90;49.90
34492;DHT22;20737;49.908;8.126;2022-07-29T12:52:40;35.50;49.80
34492;DHT22;20737;49.908;8.126;2022-07-29T12:55:07;35.90;44.80
34492;DHT22;20737;49.908;8.126;2022-07-29T12:57:45;36.30;44.70
34492;DHT22;20737;49.908;8.126;2022-07-29T13:00:13;36.70;46.70
34492;DHT22;20737;49.908;8.126;2022-07-29T13:02:41;37.10;45.40
34492;DHT22;20737;49.908;8.126;2022-07-29T13:05:11;37.40;46.40
34492;DHT22;20737;49.908;8.126;2022-07-29T13:07:38;37.10;42.40
34492;DHT22;20737;49.908;8.126;2022-07-29T13:10:13;37.10;41.90
34492;DHT22;20737;49.908;8.126;2022-07-29T13:13:01;36.80;43.00
34492;DHT22;20737;49.908;8.126;2022-07-29T13:15:29;36.40;43.80
34492;DHT22;20737;49.908;8.126;2022-07-29T13:17:55;36.10;44.70
34492;DHT22;20737;49.908;8.126;2022-07-29T13:20:26;35.90;46.60
34492;DHT22;20737;49.908;8.126;2022-07-29T13:22:55;35.00;45.40
34492;DHT22;20737;49.908;8.126;2022-07-29T13:25:26;34.20;45.40
34492;DHT22;20737;49.908;8.126;2022-07-29T13:27:54;33.70;49.60
34492;DHT22;20737;49.908;8.126;2022-07-29T13:30:21;33.60;50.40
34492;DHT22;20737;49.908;8.126;2022-07-29T13:32:49;33.50;51.80
34492;DHT22;20737;49.908;8.126;2022-07-29T13:35:16;33.20;49.50
34492;DHT22;20737;49.908;8.126;2022-07-29T13:37:44;33.20;50.40
34492;DHT22;20737;49.908;8.126;2022-07-29T13:40:12;33.50;50.80
34492;DHT22;20737;49.908;8.126;2022-07-29T13:42:39;33.70;52.50
34492;DHT22;20737;49.908;8.126;2022-07-29T13:45:07;33.70;49.40
34492;DHT22;20737;49.908;8.126;2022-07-29T13:47:35;33.70;48.50
34492;DHT22;20737;49.908;8.126;2022-07-29T13:50:02;33.10;51.30
34492;DHT22;20737;49.908;8.126;2022-07-29T13:52:29;33.00;52.30
34492;DHT22;20737;49.908;8.126;2022-07-29T13:54:57;32.90;53.20
34492;DHT22;20737;49.908;8.126;2022-07-29T13:57:24;32.60;50.10
34492;DHT22;20737;49.908;8.126;2022-07-29T13:59:51;32.50;50.70
34492;DHT22;20737;49.908;8.126;2022-07-29T14:02:18;32.20;51.30
34492;DHT22;20737;49.908;8.126;2022-07-29T14:04:45;32.10;53.20
34492;DHT22;20737;49.908;8.126;2022-07-29T14:07:11;31.80;51.60
34492;DHT22;20737;49.908;8.126;2022-07-29T14:09:38;31.80;53.80
34492;DHT22;20737;49.908;8.126;2022-07-29T14:12:07;31.80;54.60
34492;DHT22;20737;49.908;8.126;2022-07-29T14:14:34;31.70;52.60
34492;DHT22;20737;49.908;8.126;2022-07-29T14:17:02;31.50;53.90
34492;DHT22;20737;49.908;8.126;2022-07-29T14:19:31;31.50;53.00
34492;DHT22;20737;49.908;8.126;2022-07-29T14:22:01;31.30;52.50
34492;DHT22;20737;49.908;8.126;2022-07-29T14:24:28;31.20;51.10
34492;DHT22;20737;49.908;8.126;2022-07-29T14:26:55;30.80;52.40
34492;DHT22;20737;49.908;8.126;2022-07-29T14:29:24;30.80;52.70
34492;DHT22;20737;49.908;8.126;2022-07-29T14:31:51;30.70;53.20
34492;DHT22;20737;49.908;8.126;2022-07-29T14:34:17;30.50;52.70
34492;DHT22;20737;49.908;8.126;2022-07-29T14:36:44;30.50;53.80
34492;DHT22;20737;49.908;8.126;2022-07-29T14:39:11;30.40;54.30
34492;DHT22;20737;49.908;8.126;2022-07-29T14:41:38;30.30;53.90
34492;DHT22;20737;49.908;8.126;2022-07-29T14:44:05;30.20;54.70
34492;DHT22;20737;49.908;8.126;2022-07-29T14:46:33;30.20;54.80
34492;DHT22;20737;49.908;8.126;2022-07-29T14:49:00;30.20;54.90
34492;DHT22;20737;49.908;8.126;2022-07-29T14:51:26;30.40;54.80
34492;DHT22;20737;49.908;8.126;2022-07-29T14:53:53;30.50;54.60
34492;DHT22;20737;49.908;8.126;2022-07-29T14:56:21;30.50;54.20
34492;DHT22;20737;49.908;8.126;2022-07-29T14:58:48;30.50;54.70
34492;DHT22;20737;49.908;8.126;2022-07-29T15:01:15;30.50;53.90
34492;DHT22;20737;49.908;8.126;2022-07-29T15:03:43;30.60;54.80
34492;DHT22;20737;49.908;8.126;2022-07-29T15:06:10;30.90;55.70
34492;DHT22;20737;49.908;8.126;2022-07-29T15:08:36;30.90;54.40
34492;DHT22;20737;49.908;8.126;2022-07-29T15:11:03;30.70;54.30
34492;DHT22;20737;49.908;8.126;2022-07-29T15:13:30;30.60;55.60
34492;DHT22;20737;49.908;8.126;2022-07-29T15:15:57;30.60;54.50
34492;DHT22;20737;49.908;8.126;2022-07-29T15:18:23;30.40;56.00
34492;DHT22;20737;49.908;8.126;2022-07-29T15:20:51;30.20;57.00
34492;DHT22;20737;49.908;8.126;2022-07-29T15:23:18;29.70;57.80
34492;DHT22;20737;49.908;8.126;2022-07-29T15:25:46;29.30;59.30
34492;DHT22;20737;49.908;8.126;2022-07-29T15:28:13;28.80;60.00
34492;DHT22;20737;49.908;8.126;2022-07-29T15:30:40;28.50;61.30
34492;DHT22;20737;49.908;8.126;2022-07-29T15:33:08;28.40;61.60
34492;DHT22;20737;49.908;8.126;2022-07-29T15:35:34;28.10;62.60
34492;DHT22;20737;49.908;8.126;2022-07-29T15:38:03;28.00;63.10
34492;DHT22;20737;49.908;8.126;2022-07-29T15:40:29;28.00;63.00
34492;DHT22;20737;49.908;8.126;2022-07-29T15:42:56;28.10;63.60
34492;DHT22;20737;49.908;8.126;2022-07-29T15:45:26;28.10;63.40